createdAt,value
2023-03-26T00:00:19.556Z,7.06
2023-03-26T00:02:50.187Z,7.03
2023-03-26T00:05:41.593Z,7.02
2023-03-26T00:08:22.137Z,7.03
2023-03-26T00:10:52.708Z,7.02
2023-03-26T00:13:44.112Z,7.02
2023-03-26T00:16:20.791Z,7.02
2023-03-26T00:19:04.080Z,7.02
2023-03-26T00:21:34.550Z,7.01
2023-03-26T00:24:16.189Z,7.00
2023-03-26T00:26:53.354Z,6.97
2023-03-26T00:29:24.966Z,6.94
2023-03-26T00:31:58.484Z,6.92
2023-03-26T00:34:36.012Z,6.88
2023-03-26T00:37:09.351Z,6.87
2023-03-26T00:39:50.027Z,6.85
2023-03-26T00:42:21.007Z,6.83
2023-03-26T00:44:57.730Z,6.79
2023-03-26T00:47:30.003Z,6.76
2023-03-26T00:50:00.647Z,6.75
2023-03-26T00:52:41.003Z,6.76
2023-03-26T00:55:12.389Z,6.78
2023-03-26T00:58:01.925Z,6.83
2023-03-26T01:00:39.801Z,6.88
2023-03-26T01:03:26.902Z,6.91
2023-03-26T01:06:04.859Z,6.96
2023-03-26T01:08:52.888Z,7.00
2023-03-26T01:11:44.159Z,7.04
2023-03-26T01:14:19.002Z,7.08
2023-03-26T01:16:53.551Z,7.11
2023-03-26T01:19:30.725Z,7.14
2023-03-26T01:22:05.178Z,7.16
2023-03-26T01:24:38.694Z,7.17
2023-03-26T01:27:38.996Z,7.16
2023-03-26T01:30:26.584Z,7.12
2023-03-26T01:33:13.952Z,7.10
2023-03-26T01:36:10.451Z,7.06
2023-03-26T01:38:48.315Z,7.04
2023-03-26T01:41:33.172Z,7.02
2023-03-26T01:44:12.207Z,7.01
2023-03-26T01:46:44.008Z,7.00
2023-03-26T01:49:35.030Z,6.99
2023-03-26T01:52:14.036Z,6.99
2023-03-26T01:54:46.755Z,7.00
2023-03-26T01:57:28.548Z,6.99
2023-03-26T02:00:07.162Z,7.00
2023-03-26T02:02:59.059Z,7.00
2023-03-26T02:05:34.151Z,7.02
2023-03-26T02:08:12.024Z,7.03
2023-03-26T02:10:59.203Z,7.03
2023-03-26T02:13:32.271Z,7.04
2023-03-26T02:16:11.702Z,7.05
2023-03-26T02:19:02.616Z,7.07
2023-03-26T02:21:42.525Z,7.08
2023-03-26T02:24:16.299Z,7.07
2023-03-26T02:26:50.048Z,7.07
2023-03-26T02:29:23.733Z,7.05
2023-03-26T02:32:02.339Z,7.03
2023-03-26T02:34:36.887Z,7.02
2023-03-26T02:37:07.961Z,7.01
2023-03-26T02:39:37.837Z,7.00
2023-03-26T02:42:16.471Z,7.00
2023-03-26T02:44:51.164Z,7.01
2023-03-26T02:47:43.300Z,7.03
2023-03-26T02:50:37.211Z,7.06
2023-03-26T02:53:43.063Z,7.11
2023-03-26T02:56:45.824Z,7.17
2023-03-26T02:59:27.132Z,7.21
2023-03-26T03:02:16.716Z,7.24
2023-03-26T03:04:47.734Z,7.24
2023-03-26T03:07:20.548Z,7.24
2023-03-26T03:09:51.490Z,7.25
2023-03-26T03:12:41.105Z,7.25
2023-03-26T03:15:15.365Z,7.26
2023-03-26T03:17:56.168Z,7.25
2023-03-26T03:20:36.287Z,7.26
2023-03-26T03:23:09.528Z,7.26
2023-03-26T03:25:52.724Z,7.27
2023-03-26T03:28:33.475Z,7.28
2023-03-26T03:31:18.408Z,7.29
2023-03-26T03:33:51.719Z,7.31
2023-03-26T03:36:42.491Z,7.32
2023-03-26T03:39:22.948Z,7.33
2023-03-26T03:41:56.480Z,7.32
2023-03-26T03:44:47.378Z,7.33
2023-03-26T03:47:44.793Z,7.35
2023-03-26T03:50:19.111Z,7.37
2023-03-26T03:53:01.259Z,7.39
2023-03-26T03:55:32.191Z,7.41
2023-03-26T03:58:03.842Z,7.43
2023-03-26T04:00:41.755Z,7.45
2023-03-26T04:03:39.374Z,7.48
2023-03-26T04:06:14.392Z,7.50
2023-03-26T04:08:45.297Z,7.51
2023-03-26T04:11:26.017Z,7.54
2023-03-26T04:14:25.836Z,7.56
2023-03-26T04:17:26.915Z,7.57
2023-03-26T04:20:10.666Z,7.56
2023-03-26T04:22:56.331Z,7.56
2023-03-26T04:25:30.567Z,7.55
2023-03-26T04:28:31.453Z,7.57
2023-03-26T04:31:24.442Z,7.59
2023-03-26T04:34:24.440Z,7.62
2023-03-26T04:37:27.691Z,7.64
2023-03-26T04:40:21.143Z,7.66
2023-03-26T04:43:13.103Z,7.68
2023-03-26T04:46:12.312Z,7.67
2023-03-26T04:49:02.094Z,7.65
2023-03-26T04:51:39.497Z,7.65
2023-03-26T04:54:21.719Z,7.66
2023-03-26T04:57:02.986Z,7.63
2023-03-26T04:59:45.665Z,7.60
2023-03-26T05:02:37.579Z,7.57
2023-03-26T05:05:09.551Z,7.54
2023-03-26T05:07:43.405Z,7.52
2023-03-26T05:10:17.157Z,7.49
2023-03-26T05:12:54.854Z,7.45
2023-03-26T05:15:36.841Z,7.42
2023-03-26T05:18:33.435Z,7.40
2023-03-26T05:21:14.853Z,7.43
2023-03-26T05:23:48.046Z,7.46
2023-03-26T05:26:27.425Z,7.52
2023-03-26T05:28:58.318Z,7.54
2023-03-26T05:31:49.754Z,7.54
2023-03-26T05:34:26.338Z,7.53
2023-03-26T05:36:57.572Z,7.51
2023-03-26T05:40:04.341Z,7.48
2023-03-26T05:42:57.037Z,7.47
2023-03-26T05:45:49.912Z,7.55
2023-03-26T05:48:26.725Z,7.58
2023-03-26T05:50:59.422Z,7.60
2023-03-26T05:53:32.881Z,7.61
2023-03-26T05:56:22.366Z,7.63
2023-03-26T05:59:16.851Z,7.67
2023-03-26T06:02:13.109Z,7.70
2023-03-26T06:04:54.414Z,7.69
2023-03-26T06:08:00.853Z,7.68
2023-03-26T06:10:41.019Z,7.68
2023-03-26T06:13:17.402Z,7.66
2023-03-26T06:15:49.338Z,7.65
2023-03-26T06:18:40.601Z,7.63
2023-03-26T06:21:46.198Z,7.60
2023-03-26T06:24:25.443Z,7.58
2023-03-26T06:27:25.303Z,7.54
2023-03-26T06:30:17.243Z,7.51
2023-03-26T06:33:11.098Z,7.45
2023-03-26T06:36:14.847Z,7.42
2023-03-26T06:38:45.581Z,7.39
2023-03-26T06:44:43.057Z,7.30
2023-03-26T06:47:50.661Z,7.26
2023-03-26T06:50:39.860Z,7.22
2023-03-26T06:53:36.618Z,7.18
2023-03-26T06:57:18.193Z,7.18
2023-03-26T06:59:44.215Z,7.15
2023-03-26T07:02:33.429Z,7.14
2023-03-26T07:05:22.694Z,7.13
2023-03-26T07:08:12.425Z,7.13
2023-03-26T07:11:01.668Z,7.12
2023-03-26T07:13:56.366Z,7.11
2023-03-26T07:16:45.814Z,7.11
2023-03-26T07:19:45.353Z,7.10
2023-03-26T07:22:28.288Z,7.09
2023-03-26T07:25:17.913Z,7.07
2023-03-26T07:28:14.386Z,7.06
2023-03-26T07:31:16.818Z,7.04
2023-03-26T07:34:32.580Z,7.04
2023-03-26T07:37:34.197Z,7.03
2023-03-26T07:40:45.774Z,7.01
2023-03-26T07:44:08.948Z,6.97
2023-03-26T07:47:04.746Z,6.93
2023-03-26T07:49:50.158Z,6.91
2023-03-26T07:52:29.403Z,6.90
2023-03-26T07:55:13.492Z,6.92
2023-03-26T07:58:23.709Z,6.92
2023-03-26T08:01:39.227Z,6.93
2023-03-26T08:04:40.641Z,6.95
2023-03-26T08:07:41.327Z,6.98
2023-03-26T08:11:00.120Z,6.99
2023-03-26T08:13:45.581Z,6.99
2023-03-26T08:16:32.581Z,7.01
2023-03-26T08:19:34.202Z,7.01
2023-03-26T08:22:20.751Z,7.04
2023-03-26T08:25:29.707Z,7.05
2023-03-26T08:28:29.165Z,7.04
2023-03-26T08:31:25.497Z,7.03
2023-03-26T08:34:16.562Z,7.02
2023-03-26T08:37:07.873Z,6.99
2023-03-26T08:39:58.842Z,6.98
2023-03-26T08:43:10.564Z,6.97
2023-03-26T08:46:26.544Z,6.95
2023-03-26T08:49:16.947Z,6.95
2023-03-26T08:52:35.696Z,6.97
2023-03-26T08:55:41.943Z,7.02
2023-03-26T08:58:59.201Z,7.08
2023-03-26T09:02:18.338Z,7.16
2023-03-26T09:05:27.442Z,7.21
2023-03-26T09:08:54.505Z,7.23
2023-03-26T09:12:13.102Z,7.16
2023-03-26T09:15:27.508Z,7.10
2023-03-26T09:18:45.937Z,7.06
2023-03-26T09:22:05.479Z,7.07
2023-03-26T09:25:26.274Z,7.10
2023-03-26T09:28:51.890Z,7.23
2023-03-26T09:32:04.814Z,7.40
2023-03-26T09:35:14.528Z,7.84
2023-03-26T09:38:21.134Z,8.34
2023-03-26T09:41:17.955Z,8.57
2023-03-26T09:44:25.974Z,8.75
2023-03-26T09:47:22.267Z,8.79
2023-03-26T09:50:10.777Z,8.75
2023-03-26T09:53:13.973Z,8.79
2023-03-26T09:55:57.739Z,8.85
2023-03-26T09:59:24.673Z,8.88
2023-03-26T10:02:05.630Z,9.02
2023-03-26T10:05:21.694Z,9.17
2023-03-26T10:08:21.944Z,9.24
2023-03-26T10:11:21.985Z,9.37
2023-03-26T10:14:07.325Z,9.50
2023-03-26T10:16:51.456Z,9.68
2023-03-26T10:19:46.622Z,9.87
2023-03-26T10:22:36.093Z,10.20
2023-03-26T10:25:36.275Z,10.41
2023-03-26T10:28:29.285Z,10.52
2023-03-26T10:31:51.613Z,10.54
2023-03-26T10:34:47.188Z,10.53
2023-03-26T10:37:27.634Z,10.54
2023-03-26T10:40:24.523Z,10.55
2023-03-26T10:43:19.809Z,10.55
2023-03-26T10:46:15.341Z,10.61
2023-03-26T10:49:26.614Z,10.68
2023-03-26T10:52:10.754Z,10.71
2023-03-26T10:54:57.400Z,10.68
2023-03-26T10:57:38.249Z,10.59
2023-03-26T11:00:25.471Z,10.42
2023-03-26T11:03:54.563Z,10.28
2023-03-26T11:06:38.907Z,10.09
2023-03-26T11:09:23.662Z,9.94
2023-03-26T11:12:26.977Z,9.83
2023-03-26T11:15:23.894Z,9.70
2023-03-26T11:18:07.944Z,9.63
2023-03-26T11:20:46.123Z,9.68
2023-03-26T11:23:32.813Z,9.85
2023-03-26T11:26:14.075Z,10.11
2023-03-26T11:29:31.230Z,10.42
2023-03-26T11:32:04.365Z,10.92
2023-03-26T11:34:39.629Z,11.26
2023-03-26T11:37:21.692Z,11.68
2023-03-26T11:39:56.572Z,11.86
2023-03-26T11:42:29.957Z,12.13
2023-03-26T11:45:04.415Z,12.47
2023-03-26T11:47:43.123Z,12.65
2023-03-26T11:50:21.603Z,12.57
2023-03-26T11:52:53.048Z,12.43
2023-03-26T11:55:28.649Z,12.22
2023-03-26T11:58:27.952Z,11.99
2023-03-26T12:00:59.201Z,11.83
2023-03-26T12:03:32.011Z,11.66
2023-03-26T12:06:03.810Z,11.50
2023-03-26T12:08:40.248Z,11.26
2023-03-26T12:11:33.232Z,11.00
2023-03-26T12:14:06.867Z,10.80
2023-03-26T12:16:37.801Z,10.55
2023-03-26T12:19:20.154Z,10.30
2023-03-26T12:22:01.958Z,10.08
2023-03-26T12:24:34.315Z,10.00
2023-03-26T12:27:28.371Z,9.98
2023-03-26T12:30:10.428Z,10.16
2023-03-26T12:32:46.834Z,10.40
2023-03-26T12:35:25.772Z,10.62
2023-03-26T12:37:58.749Z,10.81
2023-03-26T12:40:34.383Z,11.04
2023-03-26T12:44:54.712Z,11.15
2023-03-26T12:47:54.992Z,11.22
2023-03-26T12:48:55.122Z,11.34
2023-03-26T12:51:40.515Z,11.41
2023-03-26T12:54:23.847Z,11.52
2023-03-26T12:57:13.400Z,11.55
2023-03-26T12:59:57.201Z,11.55
2023-03-26T13:02:50.655Z,11.52
2023-03-26T13:05:43.289Z,11.46
2023-03-26T13:08:35.070Z,11.40
2023-03-26T13:11:18.596Z,11.61
2023-03-26T13:14:06.384Z,11.70
2023-03-26T13:16:55.363Z,11.75
2023-03-26T13:19:53.990Z,11.77
2023-03-26T13:22:48.345Z,11.72
2023-03-26T13:25:33.294Z,11.64
2023-03-26T13:28:20.196Z,11.62
2023-03-26T13:31:01.473Z,11.64
2023-03-26T13:33:43.951Z,11.76
2023-03-26T13:36:23.826Z,12.00
2023-03-26T13:39:13.074Z,12.15
2023-03-26T13:42:00.994Z,12.26
2023-03-26T13:44:45.330Z,12.33
2023-03-26T13:47:19.765Z,12.33
2023-03-26T13:49:56.360Z,12.33
2023-03-26T13:52:36.372Z,12.27
2023-03-26T13:55:21.041Z,12.16
2023-03-26T13:57:57.099Z,12.06
2023-03-26T14:00:32.698Z,11.93
2023-03-26T14:03:35.666Z,11.85
2023-03-26T14:06:14.532Z,11.78
2023-03-26T14:08:49.185Z,11.74
2023-03-26T14:11:32.915Z,11.72
2023-03-26T14:14:11.272Z,11.68
2023-03-26T14:16:48.103Z,11.62
2023-03-26T14:19:43.147Z,11.59
2023-03-26T14:22:27.293Z,11.59
2023-03-26T14:25:15.019Z,11.57
2023-03-26T14:28:02.764Z,11.53
2023-03-26T14:30:59.198Z,11.50
2023-03-26T14:34:02.389Z,11.46
2023-03-26T14:36:56.857Z,11.46
2023-03-26T14:39:50.939Z,11.48
2023-03-26T14:42:35.049Z,11.49
2023-03-26T14:45:39.166Z,11.52
2023-03-26T14:48:39.212Z,11.54
2023-03-26T14:51:20.617Z,11.54
2023-03-26T14:53:55.859Z,11.55
2023-03-26T14:56:44.800Z,11.56
2023-03-26T15:00:15.862Z,11.49
2023-03-26T15:03:19.387Z,11.37
2023-03-26T15:06:21.211Z,11.28
2023-03-26T15:09:30.303Z,11.16
2023-03-26T15:12:36.059Z,10.98
2023-03-26T15:15:31.920Z,10.84
2023-03-26T15:18:44.538Z,10.65
2023-03-26T15:21:44.388Z,10.51
2023-03-26T15:24:53.366Z,10.37
2023-03-26T15:27:58.522Z,10.19
2023-03-26T15:31:00.874Z,10.02
2023-03-26T15:33:57.172Z,9.88
2023-03-26T15:37:17.687Z,9.78
2023-03-26T15:40:20.928Z,9.71
2023-03-26T15:43:10.432Z,9.67
2023-03-26T15:45:44.961Z,9.66
2023-03-26T15:48:44.709Z,9.66
2023-03-26T15:51:47.002Z,9.66
2023-03-26T15:54:33.839Z,9.64
2023-03-26T15:57:17.106Z,9.58
2023-03-26T16:00:02.608Z,9.51
2023-03-26T16:02:53.793Z,9.41
2023-03-26T16:05:30.079Z,9.34
2023-03-26T16:08:15.797Z,9.29
2023-03-26T16:10:52.917Z,9.24
2023-03-26T16:13:50.815Z,9.21
2023-03-26T16:16:26.085Z,9.18
2023-03-26T16:19:49.134Z,9.14
2023-03-26T16:22:43.432Z,9.09
2023-03-26T16:25:34.155Z,9.01
2023-03-26T16:28:22.615Z,8.95
2023-03-26T16:31:37.554Z,8.88
2023-03-26T16:34:31.458Z,8.79
2023-03-26T16:37:08.923Z,8.72
2023-03-26T16:39:45.151Z,8.66
2023-03-26T16:42:40.582Z,8.58
2023-03-26T16:45:22.801Z,8.51
2023-03-26T16:48:03.132Z,8.44
2023-03-26T16:50:48.655Z,8.37
2023-03-26T16:53:30.480Z,8.32
2023-03-26T16:56:26.271Z,8.27
2023-03-26T16:59:01.876Z,8.24
2023-03-26T17:01:48.367Z,8.22
2023-03-26T17:04:28.451Z,8.21
2023-03-26T17:07:17.423Z,8.20
2023-03-26T17:10:01.015Z,8.16
2023-03-26T17:12:41.586Z,8.13
2023-03-26T17:15:32.173Z,8.11
2023-03-26T17:18:22.937Z,8.07
2023-03-26T17:21:03.942Z,8.03
2023-03-26T17:23:58.239Z,8.00
2023-03-26T17:26:41.271Z,7.98
2023-03-26T17:29:31.520Z,7.95
2023-03-26T17:32:09.292Z,7.91
2023-03-26T17:35:02.186Z,7.85
2023-03-26T17:37:48.607Z,7.81
2023-03-26T17:40:53.078Z,7.77
2023-03-26T17:43:47.130Z,7.74
2023-03-26T17:46:33.125Z,7.70
2023-03-26T17:49:19.636Z,7.68
2023-03-26T17:51:58.418Z,7.63
2023-03-26T17:54:35.187Z,7.61
2023-03-26T17:57:13.461Z,7.58
2023-03-26T17:59:46.289Z,7.55
2023-03-26T18:02:21.773Z,7.53
2023-03-26T18:04:55.667Z,7.53
2023-03-26T18:08:02.054Z,7.50
2023-03-26T18:11:03.025Z,7.46
2023-03-26T18:13:57.428Z,7.43
2023-03-26T18:16:29.695Z,7.38
2023-03-26T18:19:19.406Z,7.32
2023-03-26T18:22:08.019Z,7.27
2023-03-26T18:24:45.429Z,7.23
2023-03-26T18:27:22.175Z,7.19
2023-03-26T18:30:14.937Z,7.17
2023-03-26T18:33:05.892Z,7.15
2023-03-26T18:35:59.368Z,7.13
2023-03-26T18:38:42.436Z,7.14
2023-03-26T18:41:31.603Z,7.14
2023-03-26T18:44:06.658Z,7.14
2023-03-26T18:46:38.117Z,7.15
2023-03-26T18:49:12.865Z,7.16
2023-03-26T18:51:56.842Z,7.17
2023-03-26T18:54:39.125Z,7.19
2023-03-26T18:57:21.521Z,7.20
2023-03-26T18:59:57.062Z,7.21
2023-03-26T19:02:28.260Z,7.22
2023-03-26T19:05:09.344Z,7.22
2023-03-26T19:07:41.246Z,7.23
2023-03-26T19:10:21.286Z,7.24
2023-03-26T19:13:01.380Z,7.25
2023-03-26T19:15:44.791Z,7.27
2023-03-26T19:18:23.173Z,7.28
2023-03-26T19:20:59.632Z,7.29
2023-03-26T19:23:34.564Z,7.30
2023-03-26T19:26:07.742Z,7.31
2023-03-26T19:28:41.494Z,7.31
2023-03-26T19:31:26.081Z,7.30
2023-03-26T19:34:03.129Z,7.27
2023-03-26T19:36:59.577Z,7.23
2023-03-26T19:39:44.535Z,7.18
2023-03-26T19:42:19.529Z,7.13
2023-03-26T19:44:51.373Z,7.08
2023-03-26T19:47:52.204Z,7.03
2023-03-26T19:50:31.131Z,6.97
2023-03-26T19:53:32.557Z,6.93
2023-03-26T19:56:13.505Z,6.87
2023-03-26T19:58:45.000Z,6.82
2023-03-26T20:01:19.750Z,6.77
2023-03-26T20:03:57.862Z,6.74
2023-03-26T20:06:42.676Z,6.70
2023-03-26T20:09:17.505Z,6.66
2023-03-26T20:11:59.309Z,6.63
2023-03-26T20:14:32.783Z,6.59
2023-03-26T20:17:11.101Z,6.55
2023-03-26T20:19:41.931Z,6.51
2023-03-26T20:22:20.118Z,6.48
2023-03-26T20:24:54.946Z,6.44
2023-03-26T20:27:27.571Z,6.41
2023-03-26T20:30:05.930Z,6.39
2023-03-26T20:33:12.402Z,6.36
2023-03-26T20:35:50.043Z,6.34
2023-03-26T20:38:39.189Z,6.32
2023-03-26T20:41:27.218Z,6.32
2023-03-26T20:44:15.682Z,6.31
2023-03-26T20:47:00.596Z,6.32
2023-03-26T20:49:38.049Z,6.32
2023-03-26T20:52:15.662Z,6.32
2023-03-26T20:55:01.714Z,6.30
2023-03-26T20:57:55.411Z,6.30
2023-03-26T21:00:28.420Z,6.31
2023-03-26T21:03:07.389Z,6.30
2023-03-26T21:05:48.859Z,6.30
2023-03-26T21:08:25.751Z,6.30
2023-03-26T21:11:03.665Z,6.28
2023-03-26T21:13:41.120Z,6.29
2023-03-26T21:16:24.082Z,6.28
2023-03-26T21:18:55.681Z,6.27
2023-03-26T21:21:50.789Z,6.26
2023-03-26T21:24:47.051Z,6.24
2023-03-26T21:27:26.530Z,6.23
2023-03-26T21:30:00.030Z,6.22
2023-03-26T21:32:32.408Z,6.19
2023-03-26T21:35:06.928Z,6.18
2023-03-26T21:37:38.359Z,6.16
2023-03-26T21:40:14.879Z,6.15
2023-03-26T21:42:51.226Z,6.13
2023-03-26T21:45:23.833Z,6.11
2023-03-26T21:48:03.381Z,6.11
2023-03-26T21:50:35.467Z,6.09
2023-03-26T21:53:15.501Z,6.09
2023-03-26T21:56:06.261Z,6.08
2023-03-26T21:58:48.078Z,6.08
2023-03-26T22:01:37.107Z,6.06
2023-03-26T22:04:18.012Z,6.05
2023-03-26T22:07:04.356Z,6.04
2023-03-26T22:09:38.740Z,6.02
2023-03-26T22:12:25.653Z,6.02
2023-03-26T22:14:57.059Z,6.02
2023-03-26T22:17:32.762Z,6.00
2023-03-26T22:20:07.654Z,6.00
2023-03-26T22:22:49.762Z,5.99
2023-03-26T22:25:21.679Z,5.99
2023-03-26T22:27:53.977Z,6.00
2023-03-26T22:30:28.470Z,6.01
2023-03-26T22:32:59.808Z,6.01
2023-03-26T22:35:36.075Z,6.00
2023-03-26T22:38:09.687Z,6.00
2023-03-26T22:40:43.510Z,6.00
2023-03-26T22:43:24.552Z,6.00
2023-03-26T22:45:55.719Z,5.99
2023-03-26T22:48:28.990Z,5.99
2023-03-26T22:51:04.896Z,5.99
2023-03-26T22:53:46.343Z,5.98
2023-03-26T22:56:21.914Z,5.97
2023-03-26T22:58:54.920Z,5.95
2023-03-26T23:01:36.214Z,5.93
2023-03-26T23:04:09.418Z,5.86
2023-03-26T23:06:44.076Z,5.82
2023-03-26T23:09:17.220Z,5.76
2023-03-26T23:11:59.199Z,5.70
2023-03-26T23:14:32.398Z,5.66
2023-03-26T23:17:24.097Z,5.60
2023-03-26T23:19:57.915Z,5.57
2023-03-26T23:22:28.881Z,5.53
2023-03-26T23:24:59.649Z,5.48
2023-03-26T23:27:34.171Z,5.45
2023-03-26T23:30:11.872Z,5.43
2023-03-26T23:32:50.294Z,5.41
2023-03-26T23:35:30.934Z,5.38
2023-03-26T23:38:02.317Z,5.34
2023-03-26T23:40:44.009Z,5.31
2023-03-26T23:43:17.569Z,5.30
2023-03-26T23:45:49.096Z,5.28
2023-03-26T23:48:25.472Z,5.26
2023-03-26T23:51:03.378Z,5.24
2023-03-26T23:53:55.631Z,5.21
2023-03-26T23:56:27.825Z,5.17
2023-03-26T23:59:06.165Z,5.11
